Time;durP1;ratioP1;P1;durP2;ratioP2;P2;SDS_P1;SDS_P2;PMS_P1;PMS_P2;Temp;Humidity;BMP_temperature;BMP_pressure;BME280_temperature;BME280_humidity;BME280_pressure;Samples;Min_cycle;Max_cycle;Signal;HPM_P1;HPM_P2
2023/11/07 00:00:06;;;;;;;7.93;1.83;;;10.00;99.90;;;10.35;73.24;99678.41;5077629;28;20044;-82
2023/11/07 00:02:35;;;;;;;11.93;2.00;;;10.10;99.90;;;10.35;73.47;99675.75;5070270;28;20127;-82
2023/11/07 00:05:04;;;;;;;13.70;2.95;;;10.10;99.90;;;10.35;73.34;99678.41;5077166;28;20448;-81
2023/11/07 00:07:32;;;;;;;8.45;2.28;;;10.10;99.90;;;10.36;73.32;99685.34;5078691;28;20496;-81
2023/11/07 00:09:59;;;;;;;9.50;2.20;;;10.10;99.90;;;10.37;73.19;99686.97;5057503;28;20503;-81
2023/11/07 00:12:26;;;;;;;6.50;2.00;;;10.10;99.90;;;10.31;73.22;99694.03;5080639;28;20483;-82
2023/11/07 00:14:54;;;;;;;13.70;2.45;;;10.10;99.90;;;10.29;73.43;99688.91;5071822;28;20102;-81
2023/11/07 00:17:23;;;;;;;9.98;2.60;;;10.10;99.90;;;10.30;73.49;99695.06;5076945;28;20036;-82
2023/11/07 00:19:52;;;;;;;9.57;2.55;;;10.10;99.90;;;10.29;73.63;99696.09;5079974;28;20063;-81
2023/11/07 00:22:19;;;;;;;6.28;2.30;;;10.00;99.90;;;10.31;73.48;99699.38;5055197;28;20071;-81
2023/11/07 00:24:47;;;;;;;7.88;2.05;;;10.00;99.90;;;10.32;73.45;99692.97;5080542;28;20048;-81
2023/11/07 00:27:15;;;;;;;7.22;2.22;;;10.10;99.90;;;10.34;73.62;99687.41;5091112;28;20044;-81
2023/11/07 00:29:43;;;;;;;10.25;1.85;;;10.10;99.90;;;10.35;73.23;99691.72;5080113;28;20055;-82
2023/11/07 00:32:10;;;;;;;10.77;2.72;;;10.10;99.90;;;10.34;73.29;99692.75;5078627;28;20040;-81
2023/11/07 00:34:38;;;;;;;9.40;2.35;;;10.10;99.90;;;10.34;73.31;99690.09;5073444;28;20041;-81
2023/11/07 00:37:08;;;;;;;9.35;2.70;;;10.10;99.90;;;10.35;73.22;99694.41;5080062;28;20032;-81
2023/11/07 00:39:36;;;;;;;7.03;1.85;;;10.00;99.90;;;10.34;73.37;99704.22;5046147;28;20091;-82
2023/11/07 00:42:08;;;;;;;7.50;2.10;;;10.00;99.90;;;10.34;73.38;99692.75;5042284;28;20037;-82
2023/11/07 00:44:37;;;;;;;8.00;1.90;;;10.00;99.90;;;10.30;73.32;99703.88;5064959;28;20103;-81
2023/11/07 00:47:04;;;;;;;7.43;1.90;;;10.00;99.90;;;10.25;73.57;99709.09;5064775;28;20106;-81
2023/11/07 00:49:32;;;;;;;7.03;2.05;;;9.90;99.90;;;10.25;73.74;99703.75;5079498;28;20041;-83
2023/11/07 00:52:00;;;;;;;10.07;2.42;;;10.00;99.90;;;10.28;73.54;99705.13;5062033;28;20047;-82
2023/11/07 00:54:29;;;;;;;7.72;2.00;;;10.00;99.90;;;10.30;73.59;99708.41;5071719;28;20038;-82
2023/11/07 00:56:56;;;;;;;7.20;2.42;;;10.00;99.90;;;10.31;73.37;99710.03;5079257;28;20044;-82
2023/11/07 00:59:24;;;;;;;10.00;2.10;;;10.00;99.90;;;10.29;73.39;99717.41;5079779;28;20068;-82
2023/11/07 01:01:51;;;;;;;6.78;2.00;;;10.00;99.90;;;10.28;73.32;99713.94;5046024;28;20048;-82
2023/11/07 01:04:18;;;;;;;8.43;2.20;;;10.00;99.90;;;10.19;73.36;99725.94;5061111;28;20067;-82
2023/11/07 01:06:46;;;;;;;8.00;2.10;;;10.00;99.90;;;10.19;73.66;99725.94;5069974;28;20052;-82
2023/11/07 01:09:14;;;;;;;9.40;2.35;;;10.00;99.90;;;10.17;73.70;99729.88;5041732;28;20045;-82
2023/11/07 01:11:43;;;;;;;8.23;1.73;;;10.00;99.90;;;10.21;74.20;99728.38;5061770;28;20045;-82
2023/11/07 01:14:10;;;;;;;8.55;2.05;;;10.00;99.90;;;10.23;73.91;99728.97;5057714;28;20044;-82
2023/11/07 01:16:37;;;;;;;5.75;2.00;;;10.00;99.90;;;10.19;73.59;99731.25;5064722;28;20044;-82
2023/11/07 01:19:05;;;;;;;6.28;1.80;;;10.00;99.90;;;10.22;73.89;99730.00;5075036;28;20041;-81
2023/11/07 01:21:34;;;;;;;9.38;2.10;;;10.00;99.90;;;10.21;73.72;99731.84;5071392;28;20044;-81
2023/11/07 01:24:03;;;;;;;6.03;1.90;;;10.00;99.90;;;10.23;73.87;99734.28;5075915;28;20044;-81
2023/11/07 01:26:31;;;;;;;7.95;1.83;;;10.00;99.90;;;10.20;74.13;99735.56;5062707;28;20059;-81
2023/11/07 01:29:00;;;;;;;7.38;2.63;;;10.00;99.90;;;10.21;74.04;99734.53;5073553;28;20554;-81
2023/11/07 01:31:27;;;;;;;8.30;1.83;;;10.00;99.90;;;10.24;74.01;99731.41;5074393;28;20057;-82
2023/11/07 01:33:59;;;;;;;8.88;2.40;;;10.00;99.90;;;10.26;74.16;99736.53;5060790;28;20086;-82
2023/11/07 01:36:26;;;;;;;8.45;1.80;;;10.00;99.90;;;10.28;74.23;99739.78;5075521;28;20086;-82
2023/11/07 01:38:54;;;;;;;9.10;1.73;;;10.00;99.90;;;10.30;74.35;99735.88;5078611;28;20052;-82
2023/11/07 01:41:21;;;;;;;7.13;1.95;;;10.10;99.90;;;10.31;74.27;99736.69;5078958;28;20041;-82
2023/11/07 01:43:49;;;;;;;7.05;2.05;;;10.10;99.90;;;10.35;74.30;99737.03;5061430;28;20494;-82
2023/11/07 01:46:18;;;;;;;5.88;2.00;;;10.10;99.90;;;10.36;74.20;99738.66;5073492;28;20048;-82
2023/11/07 01:48:47;;;;;;;8.73;1.80;;;10.10;99.90;;;10.29;74.16;99738.72;5076599;28;20048;-82
2023/11/07 01:51:15;;;;;;;7.00;1.80;;;10.10;99.90;;;10.35;74.35;99740.50;5078365;28;20071;-82
2023/11/07 01:53:43;;;;;;;6.10;1.58;;;10.20;99.90;;;10.38;74.34;99739.22;5079090;28;20040;-82
2023/11/07 01:56:11;;;;;;;6.90;1.42;;;10.20;99.90;;;10.39;74.16;99743.50;5062771;28;20419;-82
2023/11/07 01:58:39;;;;;;;8.50;1.85;;;10.20;99.90;;;10.27;74.39;99738.97;5069461;28;20043;-82
2023/11/07 02:01:06;;;;;;;6.03;1.70;;;10.10;99.90;;;10.25;74.47;99748.25;5061101;28;20123;-82
2023/11/07 02:03:36;;;;;;;6.93;1.80;;;10.10;99.90;;;10.23;74.68;99751.09;5079049;28;20075;-82
2023/11/07 02:06:05;;;;;;;5.38;1.60;;;10.10;99.90;;;10.29;74.48;99747.53;5065035;28;20040;-82
2023/11/07 02:08:33;;;;;;;8.93;2.00;;;10.10;99.90;;;10.31;74.65;99748.16;5078925;28;20393;-82
2023/11/07 02:11:01;;;;;;;10.43;1.70;;;10.20;99.90;;;10.34;74.59;99744.19;5050301;28;20423;-82
2023/11/07 02:13:29;;;;;;;5.18;1.55;;;10.20;99.90;;;10.37;74.69;99748.28;5066391;28;20052;-82
2023/11/07 02:15:56;;;;;;;11.68;1.85;;;10.20;99.90;;;10.37;74.56;99750.94;5060683;28;20071;-82
2023/11/07 02:18:24;;;;;;;8.15;1.60;;;10.20;99.90;;;10.38;74.61;99748.03;5073608;28;20045;-82
2023/11/07 02:20:53;;;;;;;6.70;1.58;;;10.20;99.90;;;10.37;74.67;99742.94;5079512;28;20072;-82
2023/11/07 02:26:15;;;;;;;5.13;1.50;;;10.20;99.90;;;10.34;74.90;99736.19;5169549;27;20390;-82
2023/11/07 02:28:46;;;;;;;8.35;2.03;;;10.20;99.90;;;10.39;74.58;99736.31;5115693;28;20071;-82
2023/11/07 02:31:21;;;;;;;6.72;1.58;;;10.30;99.90;;;10.38;74.76;99740.03;5114661;28;20055;-81
2023/11/07 02:33:48;;;;;;;4.22;1.40;;;10.20;99.90;;;10.41;74.70;99731.59;5108508;28;20040;-81
2023/11/07 02:36:16;;;;;;;5.80;1.40;;;10.30;99.90;;;10.45;74.65;99743.44;5108296;28;20052;-81
2023/11/07 02:38:43;;;;;;;8.48;1.77;;;10.30;99.90;;;10.37;74.74;99734.94;5116527;27;20118;-81
2023/11/07 02:41:11;;;;;;;4.45;1.13;;;10.30;99.90;;;10.35;74.54;99742.38;5115778;28;20071;-81
2023/11/07 02:43:40;;;;;;;4.80;1.50;;;10.30;99.90;;;10.38;74.96;99741.91;5113904;28;20040;-82
2023/11/07 02:46:08;;;;;;;8.65;1.45;;;10.30;99.90;;;10.39;74.76;99738.19;5094462;28;20072;-82
2023/11/07 02:48:35;;;;;;;7.90;1.40;;;10.30;99.90;;;10.39;74.86;99732.84;5106474;28;20480;-82
2023/11/07 02:51:03;;;;;;;5.38;1.40;;;10.30;99.90;;;10.40;74.96;99732.66;5115517;28;20135;-81
2023/11/07 02:53:30;;;;;;;4.72;1.48;;;10.30;99.90;;;10.42;74.79;99737.75;5105966;28;20064;-81
2023/11/07 02:55:59;;;;;;;3.72;1.35;;;10.30;99.90;;;10.43;74.46;99734.03;5113910;28;20040;-81
2023/11/07 02:58:26;;;;;;;4.30;1.60;;;10.30;99.90;;;10.43;74.36;99734.03;5113872;28;20067;-81
2023/11/07 03:00:55;;;;;;;5.53;1.25;;;10.30;99.90;;;10.47;74.46;99745.88;5107385;28;20062;-81
2023/11/07 03:03:22;;;;;;;6.43;1.52;;;10.40;99.90;;;10.48;74.31;99742.16;5112981;28;20566;-82
2023/11/07 03:05:50;;;;;;;6.68;1.50;;;10.40;99.90;;;10.40;73.92;99745.97;5109057;28;20035;-82
2023/11/07 03:08:18;;;;;;;6.82;1.60;;;10.40;99.90;;;10.30;74.10;99740.38;5103082;28;20397;-82
2023/11/07 03:10:48;;;;;;;4.35;1.40;;;10.30;99.90;;;10.28;74.57;99739.78;5107089;28;20042;-82
2023/11/07 03:13:19;;;;;;;7.63;1.80;;;10.30;99.90;;;10.30;74.36;99740.38;5111780;28;20056;-82
2023/11/07 03:15:47;;;;;;;4.30;1.25;;;10.30;99.90;;;10.29;74.50;99742.22;5098871;28;20040;-82
2023/11/07 03:18:16;;;;;;;3.42;1.30;;;10.30;99.90;;;10.31;74.39;99742.81;5115355;28;20414;-82
2023/11/07 03:20:44;;;;;;;4.90;1.35;;;10.30;99.90;;;10.29;74.31;99734.22;5116652;28;20032;-82
2023/11/07 03:23:11;;;;;;;6.70;1.38;;;10.30;99.90;;;10.28;74.40;99739.78;5094195;28;20093;-82
2023/11/07 03:25:39;;;;;;;5.55;1.67;;;10.30;99.90;;;10.32;74.51;99733.78;5097962;28;20133;-82
2023/11/07 03:28:06;;;;;;;4.90;1.60;;;10.30;99.90;;;10.38;74.61;99742.72;5098354;28;20073;-82
2023/11/07 03:30:34;;;;;;;4.80;1.30;;;10.30;99.90;;;10.40;74.34;99742.50;5098143;28;20051;-82
2023/11/07 03:33:01;;;;;;;6.57;1.35;;;10.30;99.90;;;10.46;74.56;99738.91;5097505;28;20036;-82
2023/11/07 03:35:30;;;;;;;5.00;1.45;;;10.40;99.90;;;10.42;73.40;99740.41;5102215;28;20036;-82
2023/11/07 03:37:58;;;;;;;5.00;1.40;;;10.40;99.90;;;10.41;74.04;99734.25;5099337;28;20054;-82
2023/11/07 03:40:25;;;;;;;3.72;1.13;;;10.40;99.90;;;10.44;74.34;99739.16;5098379;28;20075;-82
2023/11/07 03:42:53;;;;;;;5.18;1.30;;;10.30;99.90;;;10.47;74.09;99737.88;5112468;28;20055;-82
2023/11/07 03:45:21;;;;;;;5.18;1.05;;;10.40;99.90;;;10.47;73.96;99733.34;5086110;28;20131;-82
2023/11/07 03:47:51;;;;;;;4.07;1.30;;;10.30;99.90;;;10.45;73.51;99737.28;5091042;28;20040;-82
2023/11/07 03:50:22;;;;;;;4.53;1.25;;;10.30;99.90;;;10.42;73.82;99743.06;5100789;28;20047;-82
2023/11/07 03:52:51;;;;;;;4.55;1.25;;;10.30;99.90;;;10.40;73.88;99734.50;5093986;28;20393;-82
2023/11/07 03:55:18;;;;;;;3.03;1.05;;;10.30;99.90;;;10.36;73.31;99744.00;5091537;28;20460;-82
2023/11/07 03:57:46;;;;;;;5.60;1.27;;;10.30;99.90;;;10.31;73.66;99739.34;5095300;28;20045;-82
2023/11/07 04:00:15;;;;;;;6.90;1.20;;;10.30;99.90;;;10.40;74.06;99745.97;5101596;28;20044;-82
2023/11/07 04:02:42;;;;;;;4.50;1.38;;;10.30;99.90;;;10.40;73.65;99745.16;5081920;28;20040;-82
2023/11/07 04:05:10;;;;;;;6.43;1.33;;;10.30;99.90;;;10.34;74.00;99741.53;5100138;28;20119;-82
2023/11/07 04:07:37;;;;;;;5.80;1.40;;;10.30;99.90;;;10.37;73.41;99743.75;5090943;28;20492;-82
2023/11/07 04:10:09;;;;;;;7.22;1.23;;;10.30;99.90;;;10.39;73.83;99749.66;5097886;28;20063;-82
2023/11/07 04:12:37;;;;;;;4.80;1.45;;;10.30;99.90;;;10.31;73.27;99752.66;5107021;28;20048;-82
2023/11/07 04:15:08;;;;;;;3.50;1.10;;;10.30;99.90;;;10.29;73.60;99744.06;5082687;28;20081;-82
2023/11/07 04:17:36;;;;;;;5.15;1.30;;;10.20;99.90;;;10.26;73.43;99753.34;5101622;28;20040;-82
2023/11/07 04:20:05;;;;;;;5.78;1.20;;;10.20;99.90;;;10.27;73.44;99748.81;5099479;28;20489;-82
2023/11/07 04:22:33;;;;;;;5.82;1.20;;;10.30;99.90;;;10.31;73.76;99752.66;5101419;28;20044;-82
2023/11/07 04:25:01;;;;;;;6.15;1.40;;;10.30;99.90;;;10.39;73.94;99764.84;5098602;28;20060;-82
2023/11/07 04:27:29;;;;;;;7.03;1.40;;;10.30;99.90;;;10.42;73.81;99767.88;5100773;28;20052;-82
2023/11/07 04:29:58;;;;;;;5.15;1.42;;;10.30;99.90;;;10.46;73.64;99760.25;5099667;28;20040;-82
2023/11/07 04:32:26;;;;;;;4.65;1.52;;;10.40;99.90;;;10.46;73.36;99768.25;5099674;28;20105;-82
2023/11/07 04:34:54;;;;;;;5.22;1.30;;;10.30;99.90;;;10.52;73.68;99762.00;5100460;28;20055;-82
2023/11/07 04:37:22;;;;;;;4.60;1.05;;;10.40;99.90;;;10.53;73.68;99760.94;5096331;28;20139;-82
2023/11/07 04:39:49;;;;;;;3.85;1.30;;;10.40;99.90;;;10.48;73.37;99760.81;5102875;28;20040;-82
2023/11/07 04:42:24;;;;;;;6.13;1.27;;;10.40;99.90;;;10.46;73.10;99757.56;5099248;28;20050;-82
2023/11/07 04:44:52;;;;;;;5.47;1.38;;;10.40;99.90;;;10.49;73.33;99752.59;5100819;28;20109;-82
2023/11/07 04:47:21;;;;;;;3.35;1.13;;;10.40;99.90;;;10.55;73.68;99765.00;5102192;28;20048;-82
2023/11/07 04:49:48;;;;;;;6.28;1.52;;;10.40;99.90;;;10.56;73.62;99755.16;5085233;28;20403;-82
2023/11/07 04:52:16;;;;;;;6.13;1.33;;;10.40;99.90;;;10.55;73.42;99759.69;5088772;28;20086;-82
2023/11/07 04:54:47;;;;;;;6.90;1.58;;;10.40;99.90;;;10.57;73.51;99767.44;5096508;28;20044;-82
2023/11/07 04:57:15;;;;;;;5.55;1.95;;;10.40;99.90;;;10.48;73.23;99755.47;5091883;28;20047;-82
2023/11/07 04:59:42;;;;;;;4.22;1.23;;;10.40;99.90;;;10.51;73.27;99760.38;5100361;28;20403;-82
2023/11/07 05:02:12;;;;;;;5.45;1.63;;;10.40;99.90;;;10.50;73.21;99756.88;5099360;28;20036;-82
2023/11/07 05:04:39;;;;;;;5.03;1.10;;;10.40;99.90;;;10.54;73.33;99757.22;5092290;28;20056;-82
2023/11/07 05:07:07;;;;;;;4.97;1.30;;;10.40;99.90;;;10.59;73.61;99765.38;5088924;28;20047;-82
2023/11/07 05:09:36;;;;;;;3.67;1.23;;;10.40;99.90;;;10.61;73.61;99763.28;5096212;28;20119;-82
2023/11/07 05:12:05;;;;;;;6.45;1.35;;;10.50;99.90;;;10.61;73.52;99757.94;5079699;28;20127;-81
2023/11/07 05:14:33;;;;;;;3.10;1.10;;;10.50;99.90;;;10.60;73.19;99759.00;5090209;28;20048;-82
2023/11/07 05:17:01;;;;;;;4.38;1.55;;;10.50;99.90;;;10.55;73.26;99764.22;5096531;28;20040;-81
2023/11/07 05:19:30;;;;;;;7.95;1.45;;;10.40;99.90;;;10.58;73.20;99761.88;5091717;28;20491;-83
2023/11/07 05:21:58;;;;;;;5.10;1.35;;;10.50;99.90;;;10.55;72.97;99764.22;5097766;28;20985;-83
2023/11/07 05:24:26;;;;;;;5.97;1.35;;;10.50;99.90;;;10.57;72.86;99770.91;5096460;28;20044;-84
2023/11/07 05:26:53;;;;;;;4.78;1.20;;;10.50;99.90;;;10.48;72.56;99769.63;5097189;28;20434;-83
2023/11/07 05:29:27;;;;;;;4.82;1.17;;;10.40;99.90;;;10.48;73.31;99760.81;5098554;28;20060;-82
2023/11/07 05:32:02;;;;;;;8.75;1.38;;;10.40;99.90;;;10.50;73.33;99761.41;5087943;28;20431;-82
2023/11/07 05:34:30;;;;;;;8.88;1.70;;;10.40;99.90;;;10.55;73.74;99764.22;5097454;28;20042;-82
2023/11/07 05:36:58;;;;;;;7.95;1.45;;;10.50;99.90;;;10.61;73.68;99762.47;5092092;28;20040;-82
2023/11/07 05:39:27;;;;;;;5.70;1.40;;;10.50;99.90;;;10.63;73.67;99761.19;5094760;28;20056;-82
2023/11/07 05:41:58;;;;;;;5.80;1.35;;;10.50;99.90;;;10.66;73.55;99760.75;5097850;28;20036;-83
2023/11/07 05:44:26;;;;;;;8.10;1.40;;;10.50;99.90;;;10.65;73.42;99756.47;5093641;28;20066;-84
2023/11/07 05:46:55;;;;;;;12.52;1.48;;;10.50;99.90;;;10.68;73.44;99766.66;5097752;28;20093;-83
2023/11/07 05:49:22;;;;;;;5.43;1.30;;;10.50;99.90;;;10.67;73.13;99764.22;5094809;28;20037;-83
2023/11/07 05:51:52;;;;;;;4.88;1.30;;;10.50;99.90;;;10.67;73.07;99761.56;5079100;28;20552;-83
2023/11/07 05:54:19;;;;;;;4.38;1.55;;;10.50;99.90;;;10.57;72.34;99757.59;5090059;28;20059;-84
2023/11/07 05:56:47;;;;;;;3.58;1.13;;;10.50;99.90;;;10.58;73.24;99758.41;5093283;28;20047;-84
2023/11/07 05:59:14;;;;;;;5.57;1.48;;;10.50;99.90;;;10.62;72.97;99761.44;5096894;28;20093;-81
2023/11/07 06:01:42;;;;;;;4.32;1.30;;;10.50;99.90;;;10.63;72.94;99766.53;5098215;28;20048;-81
2023/11/07 06:04:29;;;;;;;6.18;1.42;;;10.40;99.90;;;10.60;72.36;99758.19;5097530;28;20046;-83
2023/11/07 06:06:59;;;;;;;5.28;1.73;;;10.40;99.90;;;10.53;72.66;99761.75;5097681;28;20043;-82
2023/11/07 06:09:27;;;;;;;3.20;1.15;;;10.40;99.90;;;10.56;72.67;99765.81;5098036;28;20062;-80
2023/11/07 06:11:54;;;;;;;5.43;1.80;;;10.40;99.90;;;10.55;72.31;99766.88;5098538;28;20392;-80
2023/11/07 06:14:22;;;;;;;4.20;1.40;;;10.30;99.90;;;10.49;72.54;99771.28;5097709;28;20041;-80
2023/11/07 06:16:49;;;;;;;3.97;1.42;;;10.30;99.90;;;10.52;72.92;99773.47;5097367;28;20040;-82
2023/11/07 06:19:17;;;;;;;5.90;1.55;;;10.40;99.90;;;10.52;72.53;99767.31;5097679;28;20068;-81
2023/11/07 06:21:52;;;;;;;4.40;1.50;;;10.40;99.90;;;10.52;72.99;99775.31;5092881;28;20099;-81
2023/11/07 06:24:21;;;;;;;4.65;1.30;;;10.40;99.90;;;10.56;72.96;99773.81;5076351;28;20131;-81
2023/11/07 06:26:49;;;;;;;3.60;1.25;;;10.40;99.90;;;10.57;73.31;99768.25;5082569;28;20036;-83
2023/11/07 06:29:17;;;;;;;2.88;1.30;;;10.40;99.90;;;10.54;72.82;99781.22;5061966;28;20041;-82
2023/11/07 06:31:45;;;;;;;4.28;1.27;;;10.40;99.90;;;10.56;73.14;99787.16;5087447;28;21021;-83
2023/11/07 06:34:14;;;;;;;5.20;1.33;;;10.40;99.90;;;10.58;73.39;99783.22;5113599;28;20422;-83
2023/11/07 06:36:41;;;;;;;5.97;1.50;;;10.40;99.90;;;10.60;73.59;99782.19;5100487;28;20048;-83
2023/11/07 06:39:10;;;;;;;2.47;1.05;;;10.40;99.90;;;10.59;73.23;99784.03;5102254;28;20101;-83
2023/11/07 06:41:39;;;;;;;5.57;1.60;;;10.40;99.90;;;10.57;72.85;99788.78;5099001;28;20503;-83
2023/11/07 06:44:08;;;;;;;4.68;1.40;;;10.40;99.90;;;10.54;72.92;99795.41;5077279;28;20052;-83
2023/11/07 06:46:36;;;;;;;6.35;1.65;;;10.30;99.90;;;10.56;72.95;99797.81;5066289;28;20028;-83
2023/11/07 06:49:04;;;;;;;6.68;1.40;;;10.40;99.90;;;10.56;72.79;99795.97;5095572;28;20055;-82
2023/11/07 06:51:32;;;;;;;4.13;1.58;;;10.40;99.90;;;10.56;72.78;99800.50;5100724;28;20557;-80
2023/11/07 06:54:02;;;;;;;4.68;1.40;;;10.30;99.90;;;10.53;72.89;99808.94;5082861;28;20499;-81
2023/11/07 06:56:29;;;;;;;4.22;1.30;;;10.30;99.90;;;10.53;72.76;99808.94;5102982;28;20044;-82
2023/11/07 06:58:58;;;;;;;5.60;1.60;;;10.30;99.90;;;10.52;72.58;99808.13;5101274;28;20044;-82
2023/11/07 07:01:28;;;;;;;6.00;1.25;;;10.30;99.90;;;10.50;72.80;99810.22;5092857;28;20503;-84
2023/11/07 07:03:55;;;;;;;4.80;1.45;;;10.30;99.90;;;10.50;72.76;99814.72;5087873;28;20050;-84
2023/11/07 07:06:24;;;;;;;6.70;1.48;;;10.20;99.90;;;10.47;72.67;99821.31;5096978;28;20093;-82
2023/11/07 07:08:52;;;;;;;5.80;1.40;;;10.20;99.90;;;10.39;72.73;99818.97;5114999;28;20510;-82
2023/11/07 07:11:20;;;;;;;5.72;1.40;;;10.20;99.90;;;10.41;73.19;99816.91;5065356;28;20063;-82
2023/11/07 07:13:48;;;;;;;9.32;1.63;;;10.20;99.90;;;10.43;73.04;99819.31;5102624;28;20054;-83
2023/11/07 07:16:18;;;;;;;4.18;1.33;;;10.20;99.90;;;10.43;73.15;99819.31;5095860;28;20139;-82
2023/11/07 07:18:46;;;;;;;6.63;1.40;;;10.20;99.90;;;10.43;72.90;99822.00;5098177;28;20048;-82
2023/11/07 07:21:15;;;;;;;5.40;1.50;;;10.20;99.90;;;10.29;72.82;99827.50;5105502;28;20094;-82
2023/11/07 07:23:46;;;;;;;4.22;1.60;;;10.20;99.90;;;10.33;73.36;99822.53;5100946;28;20047;-82
2023/11/07 07:26:15;;;;;;;4.53;1.50;;;10.20;99.90;;;10.35;73.24;99820.47;5106380;28;20039;-83
2023/11/07 07:28:44;;;;;;;4.80;1.30;;;10.20;99.90;;;10.38;73.09;99819.19;5104882;28;20036;-82
2023/11/07 07:31:19;;;;;;;6.93;1.50;;;10.20;99.90;;;10.39;73.39;99823.47;5095909;28;20137;-82
2023/11/07 07:33:52;;;;;;;6.70;1.30;;;10.20;99.90;;;10.40;73.49;99825.13;5089262;28;20516;-82
2023/11/07 07:36:22;;;;;;;5.15;1.23;;;10.20;99.90;;;10.41;73.34;99830.22;5101688;28;20051;-82
2023/11/07 07:38:52;;;;;;;3.75;1.20;;;10.20;99.90;;;10.41;73.43;99832.09;5106662;28;20040;-82
2023/11/07 07:41:20;;;;;;;5.90;1.33;;;10.20;99.90;;;10.39;73.37;99829.63;5102984;28;20052;-83
2023/11/07 07:43:48;;;;;;;3.15;1.30;;;10.20;99.90;;;10.44;73.62;99831.63;5103859;28;20060;-82
2023/11/07 07:46:17;;;;;;;5.72;1.30;;;10.20;99.90;;;10.39;73.58;99831.47;5098732;28;20032;-82
2023/11/07 07:48:45;;;;;;;4.20;1.10;;;10.30;99.90;;;10.41;73.79;99829.41;5088525;28;20138;-82
2023/11/07 07:51:15;;;;;;;3.63;1.20;;;10.30;99.90;;;10.39;73.90;99839.47;5106854;28;20047;-82
2023/11/07 07:53:43;;;;;;;3.13;1.20;;;10.30;99.90;;;10.44;74.24;99831.63;5091895;28;20044;-82
2023/11/07 07:56:13;;;;;;;3.55;1.13;;;10.40;99.90;;;10.47;73.78;99836.50;5104049;28;20036;-82
2023/11/07 07:58:42;;;;;;;7.55;1.23;;;10.40;99.90;;;10.42;73.66;99844.38;5102187;28;20039;-83
2023/11/07 08:01:12;;;;;;;4.38;1.17;;;10.40;99.90;;;10.46;74.06;99846.34;5084212;28;20418;-82
2023/11/07 08:03:41;;;;;;;2.92;1.00;;;10.40;99.90;;;10.44;74.18;99839.59;5102101;28;20048;-82
2023/11/07 08:06:11;;;;;;;4.13;1.10;;;10.50;99.90;;;10.48;74.33;99848.78;5103752;28;20582;-82
2023/11/07 08:08:40;;;;;;;4.15;1.48;;;10.50;99.90;;;10.45;74.15;99844.72;5092561;28;20148;-83
2023/11/07 08:11:08;;;;;;;4.00;1.40;;;10.50;99.90;;;10.40;74.35;99844.59;5085517;28;20039;-82
2023/11/07 08:13:35;;;;;;;5.78;1.30;;;10.50;99.90;;;10.44;74.27;99843.13;5106349;28;20051;-82
2023/11/07 08:16:06;;;;;;;5.57;1.20;;;10.50;99.90;;;10.41;74.09;99848.06;5106471;28;20052;-82
2023/11/07 08:18:34;;;;;;;4.18;1.25;;;10.50;99.90;;;10.42;74.10;99849.69;5109402;28;20043;-85
2023/11/07 08:21:05;;;;;;;2.67;1.00;;;10.50;99.90;;;10.42;74.33;99850.50;5109260;28;20472;-82
2023/11/07 08:23:33;;;;;;;3.10;1.25;;;10.50;99.90;;;10.46;74.56;99857.03;5108934;28;20134;-82
2023/11/07 08:26:03;;;;;;;6.07;1.20;;;10.50;99.90;;;10.54;74.14;99853.22;5107597;28;20052;-82
2023/11/07 08:28:30;;;;;;;3.92;1.33;;;10.50;99.90;;;10.53;74.59;99855.06;5107387;28;20040;-82
2023/11/07 08:31:00;;;;;;;3.97;1.38;;;10.50;99.90;;;10.54;74.56;99851.38;5103572;28;20135;-82
2023/11/07 08:33:28;;;;;;;4.18;1.20;;;10.60;99.90;;;10.58;74.36;99854.38;5103275;28;20568;-82
2023/11/07 08:35:56;;;;;;;3.28;1.30;;;10.60;99.90;;;10.53;74.26;99860.41;5104315;28;20064;-82
2023/11/07 08:38:25;;;;;;;4.03;1.08;;;10.60;99.90;;;10.56;74.54;99859.16;5103987;28;20079;-82
2023/11/07 08:40:53;;;;;;;3.85;1.30;;;10.60;99.90;;;10.60;74.28;99862.19;5105755;28;20100;-82
2023/11/07 08:43:22;;;;;;;3.92;1.20;;;10.60;99.90;;;10.61;74.54;99872.63;5102652;28;20043;-82
2023/11/07 08:45:50;;;;;;;5.15;1.42;;;10.60;99.90;;;10.64;74.71;99874.00;5103876;28;20040;-82
2023/11/07 08:48:18;;;;;;;4.32;1.05;;;10.60;99.90;;;10.64;74.13;99879.34;5092720;28;20418;-82
2023/11/07 08:50:48;;;;;;;3.88;1.27;;;10.70;99.90;;;10.62;74.18;99882.22;5095384;28;20040;-83
2023/11/07 08:53:18;;;;;;;5.80;2.23;;;10.70;99.90;;;10.64;74.47;99880.16;5103425;28;20048;-82
2023/11/07 08:55:49;;;;;;;4.80;1.40;;;10.70;99.90;;;10.67;74.29;99887.69;5103417;28;20376;-82
2023/11/07 08:58:17;;;;;;;4.50;1.27;;;10.70;99.90;;;10.64;74.28;99882.00;5103547;28;20124;-82
2023/11/07 09:00:46;;;;;;;2.85;1.13;;;10.70;99.90;;;10.64;74.53;99880.16;5103966;28;20039;-82
2023/11/07 09:03:13;;;;;;;4.97;1.38;;;10.70;99.90;;;10.69;74.22;99885.63;5104468;28;20048;-82
2023/11/07 09:05:41;;;;;;;5.10;1.42;;;10.70;99.90;;;10.78;74.36;99888.78;5086900;28;20040;-82
2023/11/07 09:08:09;;;;;;;5.38;1.40;;;10.80;99.90;;;10.78;74.13;99888.78;5100838;28;20486;-82
2023/11/07 09:10:37;;;;;;;5.65;1.30;;;10.80;99.90;;;10.66;74.04;99882.59;5099173;28;20044;-81
2023/11/07 09:13:07;;;;;;;4.22;1.33;;;10.80;99.90;;;10.68;74.07;99889.31;5069927;28;20055;-82
2023/11/07 09:15:36;;;;;;;4.20;1.23;;;10.80;99.90;;;10.68;73.50;99896.50;5104249;28;20499;-82
2023/11/07 09:18:06;;;;;;;3.85;1.20;;;10.70;99.90;;;10.75;73.88;99898.06;5071088;28;20044;-82
2023/11/07 09:20:34;;;;;;;2.88;1.20;;;10.80;99.90;;;10.72;74.01;99893.16;5106569;28;20036;-82
2023/11/07 09:23:01;;;;;;;6.93;1.65;;;10.80;99.90;;;10.73;73.71;99897.47;5103238;28;20043;-82
2023/11/07 09:25:29;;;;;;;4.70;1.40;;;10.80;99.90;;;10.72;73.78;99897.69;5098712;28;20090;-81
2023/11/07 09:27:57;;;;;;;6.93;1.58;;;10.80;99.90;;;10.73;73.93;99904.66;5099414;28;20108;-81
2023/11/07 09:30:26;;;;;;;4.60;1.30;;;10.80;99.90;;;10.75;74.26;99903.41;5104303;28;20123;-83
2023/11/07 09:32:55;;;;;;;8.93;1.75;;;10.80;99.90;;;10.81;74.54;99909.69;5101482;28;20151;-83
2023/11/07 09:35:23;;;;;;;6.63;1.20;;;10.80;99.90;;;10.85;74.28;99908.19;5104097;28;20044;-83
2023/11/07 09:37:51;;;;;;;5.78;1.38;;;10.90;99.90;;;10.86;74.20;99909.81;5104371;28;20040;-83
2023/11/07 09:40:19;;;;;;;7.65;1.50;;;10.90;99.90;;;10.90;73.75;99915.50;5088066;28;20048;-83
2023/11/07 09:42:49;;;;;;;4.40;1.40;;;10.90;99.90;;;10.91;73.70;99917.13;5105880;28;20046;-83
2023/11/07 09:45:18;;;;;;;3.72;1.20;;;10.90;99.90;;;10.88;73.52;99913.06;5105908;28;20036;-83
2023/11/07 09:47:50;;;;;;;5.47;1.60;;;11.00;99.90;;;10.85;73.98;99921.53;5105763;28;20052;-83
2023/11/07 09:50:21;;;;;;;6.47;1.30;;;11.00;99.90;;;10.91;74.04;99922.47;5101336;28;20063;-83
2023/11/07 09:52:52;;;;;;;8.75;1.85;;;11.00;99.90;;;10.91;73.57;99928.63;5105678;28;20116;-83
2023/11/07 09:55:21;;;;;;;7.45;1.65;;;11.00;99.90;;;10.90;74.38;99926.19;5106576;28;20044;-82
2023/11/07 09:57:59;;;;;;;7.90;1.88;;;11.00;99.90;;;10.89;74.82;99921.91;5106566;28;20479;-83
2023/11/07 10:00:29;;;;;;;7.03;1.60;;;11.00;99.90;;;10.88;74.07;99928.25;5105640;28;20044;-83
2023/11/07 10:02:59;;;;;;;5.13;1.73;;;11.00;99.90;;;10.88;74.56;99922.91;5103665;28;20108;-83
2023/11/07 10:05:27;;;;;;;6.53;1.65;;;11.10;99.90;;;10.97;74.44;99921.56;5086621;28;20075;-83
2023/11/07 10:07:57;;;;;;;3.75;1.95;;;11.10;99.90;;;11.04;73.98;99924.97;5090322;28;20063;-83
2023/11/07 10:10:25;;;;;;;9.38;1.70;;;11.20;99.90;;;11.06;74.20;99926.34;5089549;28;20048;-83
2023/11/07 10:12:53;;;;;;;5.60;1.58;;;11.20;99.90;;;11.08;73.44;99926.13;5106186;28;20062;-85
2023/11/07 10:15:23;;;;;;;5.57;1.58;;;11.20;99.90;;;11.08;73.38;99928.81;5105364;28;20073;-83
2023/11/07 10:18:04;;;;;;;4.68;1.50;;;11.30;99.90;;;11.14;73.63;99927.88;5105893;28;20036;-83
2023/11/07 10:20:34;;;;;;;8.00;1.42;;;11.30;99.90;;;11.16;73.77;99924.97;5106601;28;20048;-83
2023/11/07 10:23:03;;;;;;;4.55;1.75;;;11.30;99.90;;;11.17;73.70;99927.41;5105826;28;20137;-83
2023/11/07 10:25:36;;;;;;;6.50;1.80;;;11.30;99.90;;;11.03;72.81;99926.81;5087336;28;20526;-83